Time;durP1;ratioP1;P1;durP2;ratioP2;P2;SDS_P1;SDS_P2;PMS_P1;PMS_P2;Temp;Humidity;BMP_temperature;BMP_pressure;BME280_temperature;BME280_humidity;BME280_pressure;Samples;Min_cycle;Max_cycle;Signal;HPM_P1;HPM_P2
2022/03/28 00:01:30;;;;;;;6.07;2.08;;;22.40;99.90;;;;;;5016140;28;20190;-80
2022/03/28 00:04:01;;;;;;;7.93;2.60;;;22.60;99.90;;;;;;5016492;28;20198;-82
2022/03/28 00:06:32;;;;;;;5.95;2.20;;;22.70;99.90;;;;;;5016255;28;20187;-82
2022/03/28 00:09:02;;;;;;;6.43;1.90;;;22.70;99.90;;;;;;5016218;28;20293;-79
2022/03/28 00:11:33;;;;;;;3.75;1.77;;;22.90;99.90;;;;;;5016293;28;20249;-80
2022/03/28 00:14:03;;;;;;;4.65;1.77;;;23.00;99.90;;;;;;5016307;28;20203;-81
2022/03/28 00:16:36;;;;;;;4.28;1.70;;;23.20;99.90;;;;;;5015971;28;20198;-80
2022/03/28 00:19:07;;;;;;;6.43;1.95;;;23.50;99.90;;;;;;5015935;28;20199;-81
2022/03/28 00:21:37;;;;;;;2.90;1.95;;;23.50;99.90;;;;;;5016097;28;20191;-79
2022/03/28 00:24:08;;;;;;;11.40;3.60;;;23.60;99.90;;;;;;5016029;28;20191;-79
2022/03/28 00:26:39;;;;;;;6.30;2.67;;;23.50;99.90;;;;;;5015903;28;20187;-79
2022/03/28 00:29:10;;;;;;;5.60;2.28;;;23.50;99.90;;;;;;5015524;28;20214;-80
2022/03/28 00:31:42;;;;;;;2.78;1.92;;;23.40;99.90;;;;;;5015439;28;20258;-79
2022/03/28 00:34:13;;;;;;;5.35;2.70;;;23.40;99.90;;;;;;5015632;28;20201;-79
2022/03/28 00:36:44;;;;;;;3.50;2.08;;;23.30;99.90;;;;;;5015602;28;20191;-80
2022/03/28 00:39:16;;;;;;;2.67;2.10;;;23.30;99.90;;;;;;5014890;28;20198;-79
2022/03/28 00:41:46;;;;;;;3.75;1.92;;;23.30;99.90;;;;;;5015450;28;20238;-79
2022/03/28 00:44:17;;;;;;;4.50;1.90;;;23.20;99.90;;;;;;5015339;28;20195;-79
2022/03/28 00:46:50;;;;;;;4.78;2.17;;;23.30;99.90;;;;;;5015078;28;20199;-79
2022/03/28 00:49:20;;;;;;;2.50;1.90;;;23.30;99.90;;;;;;5014538;28;20608;-79
2022/03/28 00:51:52;;;;;;;3.53;2.08;;;23.30;99.90;;;;;;5015251;28;20199;-80
2022/03/28 00:54:23;;;;;;;3.97;2.10;;;23.30;99.90;;;;;;5015526;28;20597;-79
2022/03/28 00:56:53;;;;;;;5.90;1.95;;;23.20;99.90;;;;;;5015166;28;20190;-79
2022/03/28 00:59:24;;;;;;;4.40;1.98;;;23.10;99.90;;;;;;5014877;28;20191;-80
2022/03/28 01:01:56;;;;;;;3.70;2.00;;;23.10;99.90;;;;;;5015092;28;20199;-75
2022/03/28 01:04:27;;;;;;;4.25;1.92;;;23.10;99.90;;;;;;5015020;28;20230;-79
2022/03/28 01:06:58;;;;;;;5.72;1.92;;;23.00;99.90;;;;;;5014619;28;20191;-79
2022/03/28 01:09:29;;;;;;;5.47;1.85;;;23.00;99.90;;;;;;5011151;28;20211;-79
2022/03/28 01:12:00;;;;;;;4.53;1.65;;;23.00;99.90;;;;;;5014875;28;20210;-80
2022/03/28 01:14:31;;;;;;;6.05;1.85;;;22.90;99.90;;;;;;5014557;28;20226;-79
2022/03/28 01:19:56;;;;;;;3.85;1.90;;;23.00;99.90;;;;;;5014902;28;20190;-78
2022/03/28 01:22:29;;;;;;;10.30;2.17;;;23.00;99.90;;;;;;5014688;28;20195;-79
2022/03/28 01:25:01;;;;;;;3.88;1.88;;;22.90;99.90;;;;;;5014673;28;20198;-80
2022/03/28 01:27:32;;;;;;;3.15;2.10;;;22.90;99.90;;;;;;4995010;28;20196;-80
2022/03/28 01:30:04;;;;;;;3.92;2.20;;;23.00;99.90;;;;;;4994585;28;20277;-80
2022/03/28 01:32:35;;;;;;;5.70;2.00;;;23.00;99.90;;;;;;4995010;28;20266;-80
2022/03/28 01:35:06;;;;;;;4.85;2.17;;;23.00;99.90;;;;;;4994871;28;20192;-78
2022/03/28 01:37:39;;;;;;;6.43;2.22;;;23.00;99.90;;;;;;4994707;28;20196;-79
2022/03/28 01:40:10;;;;;;;8.85;2.22;;;23.00;99.90;;;;;;4994763;28;20214;-80
2022/03/28 01:42:41;;;;;;;4.53;2.17;;;23.10;99.90;;;;;;4994723;28;20188;-80
2022/03/28 01:45:12;;;;;;;4.65;2.10;;;23.10;99.90;;;;;;4994552;28;20640;-80
2022/03/28 01:47:43;;;;;;;7.07;2.10;;;23.20;99.90;;;;;;4995974;28;20250;-80
2022/03/28 01:50:13;;;;;;;6.88;2.30;;;23.20;99.90;;;;;;5023161;23;20298;-77
2022/03/28 01:52:47;;;;;;;6.70;2.30;;;23.20;99.90;;;;;;4972429;28;20201;-77
2022/03/28 01:55:23;;;;;;;4.88;2.15;;;23.20;99.90;;;;;;4984180;28;20196;-77
2022/03/28 01:57:55;;;;;;;3.70;1.88;;;23.20;99.90;;;;;;4983212;28;20657;-77
2022/03/28 02:00:28;;;;;;;6.28;2.00;;;23.20;99.90;;;;;;4983653;28;20211;-77
2022/03/28 02:02:59;;;;;;;4.95;1.77;;;23.30;99.90;;;;;;4982651;28;20595;-76
2022/03/28 02:05:29;;;;;;;6.78;2.00;;;23.30;99.90;;;;;;4984493;28;20543;-76
2022/03/28 02:08:02;;;;;;;5.97;2.40;;;23.30;99.90;;;;;;4982227;28;20287;-76
2022/03/28 02:10:33;;;;;;;8.00;2.60;;;23.30;99.90;;;;;;4982773;28;20223;-77
2022/03/28 02:13:04;;;;;;;6.43;2.20;;;23.30;99.90;;;;;;4979819;28;20191;-76
2022/03/28 02:15:35;;;;;;;6.18;2.55;;;23.40;99.90;;;;;;4982189;28;20188;-76
2022/03/28 02:18:06;;;;;;;8.30;2.40;;;23.40;99.90;;;;;;4980933;28;20192;-77
2022/03/28 02:20:36;;;;;;;7.28;2.40;;;23.40;99.90;;;;;;4978926;28;20200;-76
2022/03/28 02:23:09;;;;;;;3.85;2.35;;;23.40;99.90;;;;;;4980499;28;20670;-76
2022/03/28 02:25:39;;;;;;;6.75;2.20;;;23.40;99.90;;;;;;4979465;28;20262;-76
2022/03/28 02:28:11;;;;;;;5.90;2.47;;;23.30;99.90;;;;;;4987917;28;20203;-76
2022/03/28 02:30:42;;;;;;;6.57;2.30;;;23.30;99.90;;;;;;4980762;28;20223;-76
2022/03/28 02:33:13;;;;;;;8.95;2.65;;;23.30;99.90;;;;;;4982828;28;20194;-76
2022/03/28 02:35:46;;;;;;;9.57;2.40;;;23.30;99.90;;;;;;4973796;28;20259;-76
2022/03/28 02:38:19;;;;;;;6.95;2.30;;;23.20;99.90;;;;;;4976945;28;20219;-77
2022/03/28 02:40:50;;;;;;;5.85;2.13;;;23.30;99.90;;;;;;4979399;28;20243;-76
2022/03/28 02:43:22;;;;;;;5.97;2.00;;;23.40;99.90;;;;;;4978201;28;20196;-77
2022/03/28 02:45:53;;;;;;;7.22;2.20;;;23.50;99.90;;;;;;4976062;28;20190;-77
2022/03/28 02:48:24;;;;;;;5.75;2.38;;;23.70;99.90;;;;;;4983867;28;20193;-77
2022/03/28 02:50:54;;;;;;;5.53;2.10;;;23.80;99.90;;;;;;4977198;28;20235;-77
2022/03/28 02:53:29;;;;;;;6.88;2.17;;;24.00;99.90;;;;;;4976244;28;20232;-77
2022/03/28 02:56:03;;;;;;;5.55;1.65;;;24.20;99.90;;;;;;4975547;28;20199;-76
2022/03/28 02:58:33;;;;;;;4.00;1.80;;;24.50;99.90;;;;;;4979203;28;20698;-77
2022/03/28 03:01:04;;;;;;;5.75;1.80;;;24.60;99.90;;;;;;4975633;28;20192;-78
2022/03/28 03:03:35;;;;;;;5.07;1.95;;;24.70;99.90;;;;;;4976328;28;20193;-78
2022/03/28 03:06:05;;;;;;;5.22;1.73;;;24.70;99.90;;;;;;4977519;28;20608;-78
2022/03/28 03:08:38;;;;;;;6.40;1.70;;;24.80;99.90;;;;;;4977431;28;20196;-78
2022/03/28 03:11:09;;;;;;;5.43;1.70;;;24.80;99.90;;;;;;4977249;28;20220;-78
2022/03/28 03:13:40;;;;;;;5.63;1.80;;;24.80;99.90;;;;;;4976588;28;20193;-77
2022/03/28 03:16:11;;;;;;;3.65;1.92;;;24.80;99.90;;;;;;4977515;28;20215;-78
2022/03/28 03:18:41;;;;;;;4.95;1.80;;;24.90;99.90;;;;;;4972352;28;20246;-78
2022/03/28 03:21:12;;;;;;;4.82;1.52;;;24.80;99.90;;;;;;4977860;28;20540;-79
2022/03/28 03:23:44;;;;;;;3.03;1.48;;;24.80;99.90;;;;;;4982724;28;20189;-76
2022/03/28 03:26:15;;;;;;;3.60;1.45;;;24.70;99.90;;;;;;4977244;28;20707;-76
2022/03/28 03:28:46;;;;;;;4.45;1.60;;;24.60;99.90;;;;;;4976673;28;20189;-77
2022/03/28 03:31:17;;;;;;;4.93;1.73;;;24.70;99.90;;;;;;4980027;28;20680;-78
2022/03/28 03:33:48;;;;;;;3.22;1.73;;;24.80;99.90;;;;;;4975720;28;20250;-76
2022/03/28 03:36:19;;;;;;;5.07;1.67;;;24.60;99.90;;;;;;4973183;28;20185;-76
2022/03/28 03:38:52;;;;;;;4.20;1.40;;;24.60;99.90;;;;;;4977670;28;20610;-76
2022/03/28 03:41:22;;;;;;;3.35;1.80;;;24.50;99.90;;;;;;4976684;28;20253;-76
2022/03/28 03:43:53;;;;;;;4.63;1.75;;;24.50;99.90;;;;;;4988239;28;20271;-76
2022/03/28 03:46:24;;;;;;;6.38;1.90;;;24.40;99.90;;;;;;4974429;28;20248;-76
2022/03/28 03:48:55;;;;;;;5.70;1.83;;;24.30;99.90;;;;;;4978073;28;20216;-77
2022/03/28 03:51:26;;;;;;;5.07;1.92;;;24.30;99.90;;;;;;4985189;28;20231;-76
2022/03/28 03:53:58;;;;;;;3.95;1.67;;;24.20;99.90;;;;;;4975975;28;20251;-76
2022/03/28 03:56:29;;;;;;;5.68;1.95;;;24.20;99.90;;;;;;4976210;28;20188;-76
2022/03/28 03:59:00;;;;;;;3.97;1.80;;;24.10;99.90;;;;;;4983603;28;20195;-76
2022/03/28 04:01:31;;;;;;;4.40;1.70;;;24.10;99.90;;;;;;4970154;28;20192;-76
2022/03/28 04:04:01;;;;;;;4.28;2.00;;;24.00;99.90;;;;;;4979105;28;20203;-76
2022/03/28 04:06:34;;;;;;;4.43;2.00;;;24.00;99.90;;;;;;4976661;28;20188;-78
2022/03/28 04:09:07;;;;;;;5.80;1.75;;;24.10;99.90;;;;;;4975159;28;20228;-75
2022/03/28 04:11:38;;;;;;;7.35;2.10;;;24.10;99.90;;;;;;4975767;28;20212;-76
2022/03/28 04:14:09;;;;;;;5.80;2.00;;;24.10;99.90;;;;;;4975455;28;20193;-76
2022/03/28 04:16:40;;;;;;;6.50;1.80;;;24.10;99.90;;;;;;4979043;28;20266;-75
2022/03/28 04:19:11;;;;;;;4.55;2.08;;;24.10;99.90;;;;;;4975966;28;20203;-76
2022/03/28 04:21:43;;;;;;;6.45;2.22;;;24.10;99.90;;;;;;4973036;28;20199;-76
2022/03/28 04:24:15;;;;;;;5.00;2.20;;;24.20;99.90;;;;;;4977222;28;20192;-76
2022/03/28 04:26:46;;;;;;;6.20;2.25;;;24.10;99.90;;;;;;4976021;28;20188;-77
2022/03/28 04:29:16;;;;;;;4.25;2.28;;;24.10;99.90;;;;;;4974730;28;20192;-76
2022/03/28 04:31:47;;;;;;;5.55;2.30;;;24.10;99.90;;;;;;4976101;28;20291;-76
2022/03/28 04:34:17;;;;;;;6.32;2.22;;;24.00;99.90;;;;;;4975932;28;20251;-76
2022/03/28 04:36:48;;;;;;;5.60;2.10;;;24.00;99.90;;;;;;4976056;28;20248;-78
2022/03/28 04:39:20;;;;;;;5.20;2.20;;;23.90;99.90;;;;;;4975883;28;20703;-75
2022/03/28 04:41:51;;;;;;;5.95;2.10;;;23.90;99.90;;;;;;4975762;28;20256;-76
2022/03/28 04:44:22;;;;;;;5.30;2.20;;;24.00;99.90;;;;;;4975642;28;20219;-76
2022/03/28 04:46:53;;;;;;;5.10;2.28;;;24.00;99.90;;;;;;4976185;28;20199;-76
2022/03/28 04:49:23;;;;;;;6.30;2.13;;;24.00;99.90;;;;;;4976367;28;20267;-75
2022/03/28 04:51:54;;;;;;;5.97;2.40;;;24.00;99.90;;;;;;4969263;28;20579;-76
2022/03/28 04:54:26;;;;;;;6.78;2.50;;;24.00;99.90;;;;;;4975642;28;20263;-76
2022/03/28 04:56:57;;;;;;;4.95;2.28;;;23.90;99.90;;;;;;4975873;28;20550;-76
2022/03/28 04:59:28;;;;;;;3.35;2.10;;;23.80;99.90;;;;;;4975745;28;20267;-77
2022/03/28 05:01:59;;;;;;;5.20;2.40;;;23.80;99.90;;;;;;4975441;28;20198;-75
2022/03/28 05:04:29;;;;;;;3.58;2.13;;;23.70;99.90;;;;;;4975517;28;20251;-75
2022/03/28 05:07:00;;;;;;;4.45;2.22;;;23.70;99.90;;;;;;4975374;28;20192;-75
2022/03/28 05:09:33;;;;;;;6.22;1.90;;;23.70;99.90;;;;;;4975184;28;20200;-76
2022/03/28 05:12:03;;;;;;;3.92;2.00;;;23.60;99.90;;;;;;4974935;28;20192;-76
2022/03/28 05:14:34;;;;;;;3.67;1.77;;;23.60;99.90;;;;;;4975091;28;20544;-76
2022/03/28 05:17:05;;;;;;;4.40;1.98;;;23.60;99.90;;;;;;4975018;28;20202;-74
2022/03/28 05:19:36;;;;;;;4.78;2.00;;;23.60;99.90;;;;;;4975365;28;20193;-76
2022/03/28 05:22:10;;;;;;;7.63;1.80;;;23.50;99.90;;;;;;4974555;28;20568;-75
2022/03/28 05:24:42;;;;;;;4.90;1.80;;;23.50;99.90;;;;;;4974775;28;20197;-76
2022/03/28 05:27:13;;;;;;;6.78;2.15;;;23.40;99.90;;;;;;4975192;28;20192;-75
2022/03/28 05:29:43;;;;;;;3.60;2.08;;;23.40;99.90;;;;;;4974771;28;20235;-76
2022/03/28 05:32:17;;;;;;;4.15;2.30;;;23.40;99.90;;;;;;4974851;28;20196;-76
2022/03/28 05:34:48;;;;;;;5.40;2.20;;;23.40;99.90;;;;;;4975031;28;20192;-75
2022/03/28 05:37:19;;;;;;;3.72;2.42;;;23.30;99.90;;;;;;4975139;28;20631;-75
2022/03/28 05:39:52;;;;;;;4.70;2.22;;;23.40;99.90;;;;;;4974578;28;20224;-77
2022/03/28 05:42:22;;;;;;;4.65;2.50;;;23.30;99.90;;;;;;4975013;28;20185;-76
2022/03/28 05:44:54;;;;;;;4.25;2.30;;;23.30;99.90;;;;;;4973726;28;20188;-76
2022/03/28 05:47:24;;;;;;;6.45;2.50;;;23.30;99.90;;;;;;4974471;28;20650;-76
2022/03/28 05:49:57;;;;;;;5.20;2.20;;;23.20;99.90;;;;;;4976019;28;20235;-77
2022/03/28 05:52:28;;;;;;;3.13;1.80;;;23.30;99.90;;;;;;4975267;28;20188;-77
2022/03/28 05:55:01;;;;;;;3.55;1.83;;;23.30;99.90;;;;;;4973467;28;20195;-77
2022/03/28 05:57:31;;;;;;;4.22;2.10;;;23.30;99.90;;;;;;4966773;28;20200;-78
2022/03/28 06:00:04;;;;;;;6.25;2.13;;;23.30;99.90;;;;;;4974585;28;20201;-77
2022/03/28 06:02:35;;;;;;;4.35;1.85;;;23.40;99.90;;;;;;4972488;28;20305;-77
2022/03/28 06:05:06;;;;;;;4.70;2.05;;;23.30;99.90;;;;;;4979398;28;20636;-77
2022/03/28 06:07:37;;;;;;;4.47;2.10;;;23.40;99.90;;;;;;4975190;28;20632;-77
2022/03/28 06:10:10;;;;;;;5.35;2.05;;;23.40;99.90;;;;;;4977712;28;20196;-77
2022/03/28 06:12:41;;;;;;;7.55;2.45;;;23.40;99.90;;;;;;4974190;28;20188;-77
2022/03/28 06:15:13;;;;;;;4.75;2.13;;;23.30;99.90;;;;;;4971511;28;20196;-77
2022/03/28 06:17:43;;;;;;;7.13;2.00;;;23.30;99.90;;;;;;4979337;28;20188;-77
2022/03/28 06:20:15;;;;;;;6.35;1.80;;;23.30;99.90;;;;;;4979349;28;20203;-77
2022/03/28 06:22:46;;;;;;;4.25;1.90;;;23.30;99.90;;;;;;4971566;28;20192;-76
2022/03/28 06:25:19;;;;;;;7.72;2.17;;;23.20;99.90;;;;;;4974141;28;20566;-77
2022/03/28 06:27:50;;;;;;;7.82;1.83;;;23.20;99.90;;;;;;4983591;28;20243;-78
2022/03/28 06:30:21;;;;;;;6.93;1.52;;;23.10;99.90;;;;;;4973562;28;20199;-77
2022/03/28 06:32:51;;;;;;;4.15;1.50;;;23.10;99.90;;;;;;4969279;28;20619;-77
2022/03/28 06:35:22;;;;;;;5.57;1.70;;;23.10;99.90;;;;;;4972677;28;20196;-77
2022/03/28 06:37:53;;;;;;;6.63;1.40;;;23.00;99.90;;;;;;4977188;28;20300;-77
2022/03/28 06:40:27;;;;;;;3.15;1.30;;;23.00;99.90;;;;;;4974174;28;20192;-77
2022/03/28 06:42:58;;;;;;;6.28;1.65;;;23.00;99.90;;;;;;4974024;28;20191;-78
2022/03/28 06:45:29;;;;;;;6.07;1.88;;;22.90;99.90;;;;;;4973863;28;20208;-77
2022/03/28 06:47:59;;;;;;;4.53;1.30;;;22.90;99.90;;;;;;4981351;28;20671;-76
2022/03/28 06:50:30;;;;;;;5.78;1.17;;;22.90;99.90;;;;;;4983031;28;20240;-77
2022/03/28 06:53:01;;;;;;;4.38;1.30;;;22.80;99.90;;;;;;4979229;28;20198;-77
2022/03/28 06:55:33;;;;;;;7.70;1.45;;;22.80;99.90;;;;;;4973528;28;20188;-77
2022/03/28 06:58:04;;;;;;;4.63;1.20;;;22.80;99.90;;;;;;4973794;28;20197;-77
2022/03/28 07:00:34;;;;;;;4.85;1.20;;;22.80;99.90;;;;;;4970628;28;20200;-77
2022/03/28 07:03:07;;;;;;;5.18;1.30;;;22.70;99.90;;;;;;4976913;28;20199;-77
2022/03/28 07:05:38;;;;;;;4.32;1.20;;;22.70;99.90;;;;;;4980568;28;20280;-77
2022/03/28 07:08:09;;;;;;;4.00;1.20;;;22.70;99.90;;;;;;4975337;28;20240;-77
2022/03/28 07:10:42;;;;;;;5.40;1.00;;;22.70;99.90;;;;;;4973499;28;20702;-78
2022/03/28 07:13:13;;;;;;;6.40;1.05;;;22.60;99.90;;;;;;4974052;28;20258;-77
2022/03/28 07:15:43;;;;;;;4.60;0.98;;;22.60;99.90;;;;;;4972059;28;20208;-77
2022/03/28 07:18:14;;;;;;;4.13;0.98;;;22.60;99.90;;;;;;4977595;28;20188;-77
2022/03/28 07:20:45;;;;;;;5.50;0.90;;;22.60;99.90;;;;;;4975060;28;20205;-77
2022/03/28 07:23:15;;;;;;;2.67;1.02;;;22.60;99.90;;;;;;4973452;28;20283;-78
2022/03/28 07:25:48;;;;;;;5.80;1.20;;;22.60;99.90;;;;;;4980115;28;20193;-77
2022/03/28 07:28:19;;;;;;;4.88;1.00;;;22.50;99.90;;;;;;4977290;28;20730;-77
2022/03/28 07:30:50;;;;;;;2.40;1.00;;;22.50;99.90;;;;;;4977871;28;20307;-77
2022/03/28 07:33:22;;;;;;;6.68;1.30;;;22.50;99.90;;;;;;4976490;28;20252;-77
2022/03/28 07:35:53;;;;;;;6.10;1.05;;;22.50;99.90;;;;;;4971790;28;20275;-78
2022/03/28 07:38:24;;;;;;;4.97;1.15;;;22.40;99.90;;;;;;4974555;28;20204;-77
2022/03/28 07:40:56;;;;;;;5.82;1.17;;;22.40;99.90;;;;;;4976206;28;20189;-78
2022/03/28 07:43:27;;;;;;;6.10;1.10;;;22.40;99.90;;;;;;4970239;28;20184;-78
2022/03/28 07:45:58;;;;;;;5.90;1.00;;;22.30;99.90;;;;;;4973890;28;20200;-77
2022/03/28 07:48:29;;;;;;;5.05;1.00;;;22.30;99.90;;;;;;4974325;28;20193;-78
2022/03/28 07:50:59;;;;;;;3.55;1.40;;;22.40;99.90;;;;;;4976236;28;20231;-77
2022/03/28 07:53:30;;;;;;;6.75;1.35;;;22.30;99.90;;;;;;4975055;28;20267;-77
2022/03/28 07:56:02;;;;;;;6.63;1.50;;;22.30;99.90;;;;;;4977617;28;20201;-77
2022/03/28 07:58:33;;;;;;;10.25;1.50;;;22.30;99.90;;;;;;4978216;28;20239;-77
2022/03/28 08:01:04;;;;;;;4.20;1.00;;;22.30;99.90;;;;;;4973045;28;20196;-77
2022/03/28 08:03:35;;;;;;;4.95;1.25;;;22.30;99.90;;;;;;4983311;28;20557;-77
2022/03/28 08:06:05;;;;;;;5.72;1.02;;;22.30;99.90;;;;;;4974073;28;20549;-78
2022/03/28 08:08:37;;;;;;;6.30;1.30;;;22.20;99.90;;;;;;4978585;28;20648;-76
2022/03/28 08:11:10;;;;;;;6.90;1.15;;;22.20;99.90;;;;;;4974522;28;20204;-78
2022/03/28 08:13:41;;;;;;;5.53;1.20;;;22.20;99.90;;;;;;4975368;28;20188;-77
2022/03/28 08:16:13;;;;;;;4.60;1.10;;;22.20;99.90;;;;;;4975973;28;20223;-78
2022/03/28 08:18:43;;;;;;;4.63;1.10;;;22.20;99.90;;;;;;4975881;28;20594;-77
2022/03/28 08:21:14;;;;;;;4.55;1.10;;;22.20;99.90;;;;;;4976177;28;20199;-78
2022/03/28 08:23:45;;;;;;;13.32;2.35;;;22.20;99.90;;;;;;4978386;28;20624;-78
2022/03/28 08:26:17;;;;;;;6.35;1.08;;;22.20;99.90;;;;;;4976895;28;20208;-77
2022/03/28 08:28:48;;;;;;;5.85;1.38;;;22.20;99.90;;;;;;4974909;28;20594;-76
2022/03/28 08:31:19;;;;;;;5.25;1.20;;;22.10;99.90;;;;;;4977291;28;20212;-76
2022/03/28 08:33:50;;;;;;;6.35;1.35;;;22.10;99.90;;;;;;4976938;28;20248;-77
2022/03/28 08:36:20;;;;;;;5.22;1.10;;;22.10;99.90;;;;;;4976735;28;20192;-77
2022/03/28 08:38:51;;;;;;;5.03;1.23;;;22.10;99.90;;;;;;4976668;28;20185;-76
2022/03/28 08:41:28;;;;;;;8.45;1.30;;;22.10;99.90;;;;;;4977374;28;20204;-77
2022/03/28 08:43:58;;;;;;;5.43;1.20;;;22.10;99.90;;;;;;4975879;28;20199;-76
2022/03/28 08:46:30;;;;;;;6.10;1.10;;;22.10;99.90;;;;;;4982246;28;20188;-76
2022/03/28 08:49:01;;;;;;;9.13;1.17;;;22.10;99.90;;;;;;4979158;28;20220;-77
2022/03/28 08:51:32;;;;;;;14.00;1.55;;;22.00;99.90;;;;;;4976619;28;20236;-76
2022/03/28 08:54:02;;;;;;;2.30;0.90;;;22.00;99.90;;;;;;4977601;28;20651;-76
2022/03/28 08:56:35;;;;;;;8.45;1.30;;;22.00;99.90;;;;;;4984733;28;20196;-76
2022/03/28 08:59:05;;;;;;;5.03;1.00;;;22.00;99.90;;;;;;4978421;28;20255;-76
2022/03/28 09:01:37;;;;;;;5.88;1.05;;;22.00;99.90;;;;;;4970695;28;20244;-76
2022/03/28 09:04:14;;;;;;;9.95;1.17;;;22.00;99.90;;;;;;4979788;28;20206;-76
2022/03/28 09:06:45;;;;;;;8.23;1.20;;;22.00;99.90;;;;;;4988896;28;20270;-77
2022/03/28 09:09:21;;;;;;;6.10;1.25;;;22.00;99.90;;;;;;4976215;28;20192;-76
2022/03/28 09:11:56;;;;;;;4.90;1.25;;;22.00;99.90;;;;;;4977286;28;20216;-77
2022/03/28 09:14:32;;;;;;;4.32;1.20;;;22.10;99.90;;;;;;4980932;28;20274;-76
2022/03/28 09:17:09;;;;;;;6.53;1.17;;;22.00;99.90;;;;;;4979206;28;20218;-76
2022/03/28 09:19:47;;;;;;;5.13;1.23;;;22.00;99.90;;;;;;4980215;28;20195;-76
2022/03/28 09:22:19;;;;;;;7.32;1.10;;;22.00;99.90;;;;;;4982616;28;20250;-76
2022/03/28 09:24:50;;;;;;;5.65;0.90;;;22.00;99.90;;;;;;4973796;28;20196;-76
2022/03/28 09:27:24;;;;;;;6.03;1.05;;;22.00;99.90;;;;;;4978818;28;20188;-76
2022/03/28 09:30:04;;;;;;;6.25;1.13;;;22.00;99.90;;;;;;4977957;28;20192;-76
2022/03/28 09:32:37;;;;;;;7.72;1.10;;;22.00;99.90;;;;;;4970797;28;20212;-76
2022/03/28 09:35:20;;;;;;;5.78;1.13;;;22.00;99.90;;;;;;4977521;28;20579;-77
2022/03/28 09:37:58;;;;;;;4.72;1.02;;;22.00;99.90;;;;;;4975135;28;20195;-76
2022/03/28 09:40:31;;;;;;;2.92;0.90;;;22.00;99.90;;;;;;4978016;28;20192;-75
2022/03/28 09:43:05;;;;;;;5.38;1.10;;;22.00;99.90;;;;;;4973838;28;20192;-75
2022/03/28 09:45:39;;;;;;;4.10;0.85;;;22.10;99.90;;;;;;4971611;28;20591;-76
2022/03/28 09:48:11;;;;;;;4.68;1.20;;;22.00;99.90;;;;;;4976756;28;20246;-77
2022/03/28 09:50:43;;;;;;;6.78;1.10;;;22.00;99.90;;;;;;4978358;28;20228;-76
2022/03/28 09:53:16;;;;;;;3.63;0.77;;;22.00;99.90;;;;;;4980212;28;20694;-77
2022/03/28 09:55:51;;;;;;;7.20;1.17;;;22.00;99.90;;;;;;4972910;28;20553;-77
2022/03/28 09:58:46;;;;;;;4.35;1.00;;;22.00;99.90;;;;;;4980309;28;20184;-76
2022/03/28 10:01:19;;;;;;;3.90;0.80;;;22.00;99.90;;;;;;4979787;28;20279;-76
2022/03/28 10:03:51;;;;;;;6.28;1.20;;;21.90;99.90;;;;;;4977519;28;20602;-76
2022/03/28 10:06:22;;;;;;;6.20;0.93;;;21.90;99.90;;;;;;4980143;28;20223;-77
2022/03/28 10:08:53;;;;;;;4.10;0.80;;;21.90;99.90;;;;;;4974093;28;20196;-77
2022/03/28 10:11:24;;;;;;;5.90;1.00;;;21.90;99.90;;;;;;4980607;28;20214;-75
2022/03/28 10:13:57;;;;;;;2.38;0.80;;;21.90;99.90;;;;;;4977345;28;20247;-76
2022/03/28 10:16:28;;;;;;;9.75;1.30;;;21.90;99.90;;;;;;4980722;28;20184;-75
2022/03/28 10:18:58;;;;;;;7.22;1.13;;;21.80;99.90;;;;;;4980940;28;20230;-75
2022/03/28 10:21:31;;;;;;;5.53;1.27;;;21.80;99.90;;;;;;4975893;28;20192;-76
2022/03/28 10:24:07;;;;;;;7.78;1.30;;;21.80;99.90;;;;;;4978161;28;20191;-76
2022/03/28 10:26:39;;;;;;;7.13;1.13;;;21.80;99.90;;;;;;4974202;28;20196;-76
2022/03/28 10:29:13;;;;;;;7.30;1.33;;;21.80;99.90;;;;;;4973917;28;20710;-76
2022/03/28 10:31:58;;;;;;;7.32;1.33;;;21.70;99.90;;;;;;4977799;28;20224;-76
2022/03/28 10:34:53;;;;;;;4.50;1.25;;;21.70;99.90;;;;;;4976241;28;20200;-75
2022/03/28 10:37:36;;;;;;;9.77;1.48;;;21.70;99.90;;;;;;4980868;28;20283;-76
2022/03/28 10:40:40;;;;;;;6.70;1.25;;;21.60;99.90;;;;;;4975606;28;20188;-76
2022/03/28 10:43:13;;;;;;;5.47;1.50;;;21.60;99.90;;;;;;4973709;28;20196;-75
2022/03/28 10:45:49;;;;;;;9.68;1.38;;;21.60;99.90;;;;;;4975961;28;20687;-76
2022/03/28 10:48:34;;;;;;;5.45;1.10;;;21.50;99.90;;;;;;4974180;28;20199;-75
2022/03/28 10:51:09;;;;;;;5.47;1.25;;;21.50;99.90;;;;;;4975303;28;20622;-76
2022/03/28 10:53:47;;;;;;;7.25;1.42;;;21.40;99.90;;;;;;4973367;28;20220;-76
2022/03/28 10:56:21;;;;;;;6.55;1.45;;;21.40;99.90;;;;;;4977380;28;20651;-76
2022/03/28 10:58:54;;;;;;;9.23;1.85;;;21.40;99.90;;;;;;4973626;28;20598;-75
2022/03/28 11:01:35;;;;;;;6.57;1.58;;;21.40;99.90;;;;;;4980769;28;20234;-76
2022/03/28 11:04:21;;;;;;;7.57;1.38;;;21.30;99.90;;;;;;4973105;28;20196;-76
2022/03/28 11:07:03;;;;;;;8.60;1.50;;;21.30;99.90;;;;;;4977660;28;20195;-75
2022/03/28 11:09:55;;;;;;;9.05;1.60;;;21.30;99.90;;;;;;4983738;28;20187;-76
2022/03/28 11:12:32;;;;;;;9.48;1.70;;;21.30;99.90;;;;;;4975066;28;20310;-75
2022/03/28 11:15:08;;;;;;;6.20;1.48;;;21.30;99.90;;;;;;4976122;28;20196;-74
2022/03/28 11:17:54;;;;;;;7.72;1.60;;;21.30;99.90;;;;;;4981846;28;20187;-76
2022/03/28 11:20:26;;;;;;;5.80;1.40;;;21.20;99.90;;;;;;4982422;28;20192;-76
2022/03/28 11:23:15;;;;;;;6.95;1.30;;;21.20;99.90;;;;;;4975114;28;20592;-76
2022/03/28 11:25:48;;;;;;;6.35;1.42;;;21.20;99.90;;;;;;4982664;28;20279;-77
2022/03/28 11:28:29;;;;;;;5.65;1.58;;;21.20;99.90;;;;;;4982000;28;20220;-74
2022/03/28 11:31:15;;;;;;;9.52;1.70;;;21.20;99.90;;;;;;4980655;28;20197;-79
2022/03/28 11:33:51;;;;;;;7.30;1.15;;;21.20;99.90;;;;;;4975952;28;20223;-83
2022/03/28 11:36:24;;;;;;;4.78;1.40;;;21.10;99.90;;;;;;4984196;28;20227;-78
2022/03/28 11:39:00;;;;;;;4.20;1.25;;;21.10;99.90;;;;;;4979591;28;20222;-77
2022/03/28 11:41:31;;;;;;;7.00;1.30;;;21.10;99.90;;;;;;4981152;28;20223;-80
2022/03/28 11:44:15;;;;;;;7.07;1.30;;;21.10;99.90;;;;;;4977437;28;20196;-78
2022/03/28 11:47:04;;;;;;;7.20;1.33;;;21.10;99.90;;;;;;4978407;28;20236;-78
2022/03/28 11:50:05;;;;;;;6.68;1.48;;;21.10;99.90;;;;;;4976526;28;20280;-81
2022/03/28 11:52:39;;;;;;;5.03;1.60;;;21.10;99.90;;;;;;4980413;28;20210;-82
2022/03/28 11:55:36;;;;;;;5.00;1.60;;;21.00;99.90;;;;;;4978576;28;20193;-86
2022/03/28 11:58:20;;;;;;;8.90;1.70;;;21.10;99.90;;;;;;4978453;28;20258;-83
2022/03/28 12:00:51;;;;;;;5.57;1.25;;;21.00;99.90;;;;;;4972734;28;20239;-83
2022/03/28 12:03:22;;;;;;;9.73;1.45;;;21.00;99.90;;;;;;4981331;28;20187;-84
2022/03/28 12:05:54;;;;;;;5.90;1.27;;;21.00;99.90;;;;;;4979995;28;20784;-84
2022/03/28 12:08:25;;;;;;;10.38;1.73;;;21.00;99.90;;;;;;4982242;28;20243;-75
2022/03/28 12:10:56;;;;;;;11.40;1.65;;;21.00;99.90;;;;;;4980960;28;20195;-76
2022/03/28 12:13:28;;;;;;;5.60;1.30;;;20.90;99.90;;;;;;4980181;28;20238;-76
2022/03/28 12:15:58;;;;;;;6.00;1.33;;;20.90;99.90;;;;;;4978125;28;20196;-75
2022/03/28 12:18:33;;;;;;;7.55;1.30;;;20.90;99.90;;;;;;4976312;28;20192;-74
2022/03/28 12:21:05;;;;;;;7.85;1.20;;;20.90;99.90;;;;;;4972304;28;20191;-75
2022/03/28 12:23:38;;;;;;;8.18;1.20;;;20.90;99.90;;;;;;4976282;28;20251;-75
2022/03/28 12:26:09;;;;;;;7.65;1.42;;;20.80;99.90;;;;;;4982737;28;20191;-75
2022/03/28 12:28:45;;;;;;;8.02;1.30;;;20.80;99.90;;;;;;4977654;28;20601;-76
2022/03/28 12:31:16;;;;;;;5.85;1.50;;;20.80;99.90;;;;;;4975351;28;20196;-76
2022/03/28 12:33:48;;;;;;;6.32;1.40;;;20.80;99.90;;;;;;4975018;28;20212;-77
2022/03/28 12:36:24;;;;;;;7.28;1.40;;;20.80;99.90;;;;;;4975680;28;20674;-76
2022/03/28 12:39:02;;;;;;;4.80;1.30;;;20.80;99.90;;;;;;4974752;28;20189;-77
2022/03/28 12:41:33;;;;;;;7.80;1.10;;;20.80;99.90;;;;;;4976575;28;20192;-75
2022/03/28 12:44:05;;;;;;;5.45;1.30;;;20.80;99.90;;;;;;4975795;28;20589;-76
2022/03/28 12:46:36;;;;;;;6.25;1.10;;;20.70;99.90;;;;;;4969158;28;20269;-75
2022/03/28 12:49:13;;;;;;;8.13;1.70;;;20.80;99.90;;;;;;4975274;28;20207;-78
2022/03/28 12:51:47;;;;;;;7.78;1.30;;;20.70;99.90;;;;;;4975214;28;20279;-76
2022/03/28 12:54:21;;;;;;;7.47;1.48;;;20.70;99.90;;;;;;4975657;28;20216;-77
2022/03/28 12:56:54;;;;;;;6.15;1.55;;;20.70;99.90;;;;;;4981894;28;20562;-79
2022/03/28 12:59:26;;;;;;;5.75;1.40;;;20.70;99.90;;;;;;4974481;28;20201;-79
2022/03/28 13:02:08;;;;;;;9.40;1.63;;;20.70;99.90;;;;;;4975832;28;20197;-77
2022/03/28 13:04:46;;;;;;;8.23;1.65;;;20.70;99.90;;;;;;4975323;28;20263;-75
2022/03/28 13:07:23;;;;;;;6.05;1.50;;;20.70;99.90;;;;;;4974565;28;20203;-74
2022/03/28 13:09:57;;;;;;;6.75;1.58;;;20.70;99.90;;;;;;4975432;28;20750;-76
2022/03/28 13:12:40;;;;;;;4.63;1.60;;;20.70;99.90;;;;;;4974787;28;20222;-74
2022/03/28 13:15:17;;;;;;;8.27;1.60;;;20.60;99.90;;;;;;4981651;28;20198;-74
2022/03/28 13:17:49;;;;;;;5.70;1.50;;;20.70;99.90;;;;;;4974171;28;20210;-75